createdAt,value
2023-03-30T00:00:41.063Z,0.00
2023-03-30T00:01:41.033Z,0.00
2023-03-30T00:02:41.111Z,0.00
2023-03-30T00:03:41.300Z,0.00
2023-03-30T00:04:41.137Z,0.00
2023-03-30T00:05:40.989Z,0.00
2023-03-30T00:06:40.978Z,0.00
2023-03-30T00:07:40.976Z,0.00
2023-03-30T00:08:40.956Z,0.00
2023-03-30T00:09:40.942Z,0.00
2023-03-30T00:10:40.942Z,0.00
2023-03-30T00:11:40.922Z,0.00
2023-03-30T00:12:40.910Z,0.00
2023-03-30T00:13:40.897Z,0.00
2023-03-30T00:14:40.890Z,0.00
2023-03-30T00:15:40.875Z,0.00
2023-03-30T00:16:40.874Z,0.00
2023-03-30T00:17:40.863Z,0.00
2023-03-30T00:18:40.849Z,0.00
2023-03-30T00:19:40.862Z,0.00
2023-03-30T00:20:40.848Z,0.00
2023-03-30T00:21:40.812Z,0.00
2023-03-30T00:22:40.803Z,0.00
2023-03-30T00:23:40.790Z,0.00
2023-03-30T00:24:40.776Z,0.00
2023-03-30T00:25:40.764Z,0.00
2023-03-30T00:26:40.756Z,0.00
2023-03-30T00:27:40.740Z,0.00
2023-03-30T00:28:40.732Z,0.00
2023-03-30T00:29:40.719Z,0.00
2023-03-30T00:30:40.711Z,0.00
2023-03-30T00:31:40.749Z,0.00
2023-03-30T00:32:40.730Z,0.00
2023-03-30T00:33:46.479Z,0.00
2023-03-30T00:34:41.690Z,0.00
2023-03-30T00:35:40.690Z,0.00
2023-03-30T00:36:40.643Z,0.00
2023-03-30T00:37:40.630Z,0.00
2023-03-30T00:38:40.905Z,0.00
2023-03-30T00:39:40.603Z,0.00
2023-03-30T00:40:40.594Z,0.00
2023-03-30T00:41:40.586Z,0.00
2023-03-30T00:42:40.574Z,0.00
2023-03-30T00:43:40.558Z,0.00
2023-03-30T00:44:40.552Z,0.00
2023-03-30T00:45:40.559Z,0.00
2023-03-30T00:46:40.527Z,0.00
2023-03-30T00:47:40.553Z,0.00
2023-03-30T00:48:40.508Z,0.00
2023-03-30T00:49:40.491Z,0.00
2023-03-30T00:50:40.484Z,0.00
2023-03-30T00:51:40.499Z,0.00
2023-03-30T00:52:40.462Z,0.00
2023-03-30T00:53:40.442Z,0.00
2023-03-30T00:54:40.438Z,0.00
2023-03-30T00:55:40.423Z,0.00
2023-03-30T00:56:40.475Z,0.00
2023-03-30T00:57:40.407Z,0.00
2023-03-30T00:58:40.389Z,0.00
2023-03-30T00:59:40.399Z,0.00
2023-03-30T01:00:40.386Z,0.00
2023-03-30T01:01:40.453Z,0.00
2023-03-30T01:02:40.378Z,0.00
2023-03-30T01:03:40.386Z,0.00
2023-03-30T01:04:40.323Z,0.00
2023-03-30T01:05:40.312Z,0.00
2023-03-30T01:06:40.703Z,0.00
2023-03-30T01:07:40.352Z,0.00
2023-03-30T01:08:40.279Z,0.00
2023-03-30T01:09:40.270Z,0.00
2023-03-30T01:10:40.260Z,0.00
2023-03-30T01:11:40.249Z,0.00
2023-03-30T01:12:40.233Z,0.00
2023-03-30T01:13:40.220Z,0.00
2023-03-30T01:14:40.211Z,0.00
2023-03-30T01:15:40.245Z,0.00
2023-03-30T01:16:40.197Z,0.00
2023-03-30T01:17:40.226Z,0.00
2023-03-30T01:18:40.170Z,0.00
2023-03-30T01:19:40.170Z,0.00
2023-03-30T01:20:40.157Z,0.00
2023-03-30T01:21:40.160Z,0.00
2023-03-30T01:22:40.140Z,0.00
2023-03-30T01:23:40.152Z,0.00
2023-03-30T01:24:40.117Z,0.00
2023-03-30T01:25:40.092Z,0.00
2023-03-30T01:26:40.076Z,0.00
2023-03-30T01:27:40.092Z,0.00
2023-03-30T01:28:40.056Z,0.00
2023-03-30T01:29:40.043Z,0.00
2023-03-30T01:30:40.036Z,0.00
2023-03-30T01:31:40.058Z,0.00
2023-03-30T01:32:40.058Z,0.00
2023-03-30T01:33:39.995Z,0.00
2023-03-30T01:34:39.986Z,0.00
2023-03-30T01:35:40.091Z,0.00
2023-03-30T01:36:39.978Z,0.00
2023-03-30T01:37:39.953Z,0.00
2023-03-30T01:38:39.944Z,0.00
2023-03-30T01:39:39.982Z,0.00
2023-03-30T01:40:39.925Z,0.00
2023-03-30T01:41:39.910Z,0.00
2023-03-30T01:42:39.895Z,0.00
2023-03-30T01:43:39.882Z,0.00
2023-03-30T01:44:39.874Z,0.00
2023-03-30T01:45:39.864Z,0.00
2023-03-30T01:46:39.869Z,0.00
2023-03-30T01:47:39.876Z,0.00
2023-03-30T01:48:39.833Z,0.00
2023-03-30T01:49:39.819Z,0.00
2023-03-30T01:50:39.811Z,0.00
2023-03-30T01:51:39.792Z,0.00
2023-03-30T01:52:39.788Z,0.00
2023-03-30T01:53:39.769Z,0.00
2023-03-30T01:54:39.767Z,0.00
2023-03-30T01:55:39.776Z,0.00
2023-03-30T01:56:39.784Z,0.00
2023-03-30T01:57:39.725Z,0.00
2023-03-30T01:58:39.723Z,0.00
2023-03-30T01:59:39.702Z,0.00
2023-03-30T02:00:39.694Z,0.00
2023-03-30T02:01:39.729Z,0.00
2023-03-30T02:02:39.771Z,0.00
2023-03-30T02:03:39.822Z,0.00
2023-03-30T02:04:39.651Z,0.00
2023-03-30T02:05:39.636Z,0.00
2023-03-30T02:06:39.652Z,0.00
2023-03-30T02:07:39.613Z,0.00
2023-03-30T02:08:39.603Z,0.00
2023-03-30T02:09:39.596Z,0.00
2023-03-30T02:10:39.578Z,0.00
2023-03-30T02:11:39.598Z,0.00
2023-03-30T02:12:39.559Z,0.00
2023-03-30T02:13:39.547Z,0.00
2023-03-30T02:14:39.533Z,0.00
2023-03-30T02:15:39.532Z,0.00
2023-03-30T02:16:39.560Z,0.00
2023-03-30T02:17:39.573Z,0.00
2023-03-30T02:18:39.490Z,0.00
2023-03-30T02:19:39.489Z,0.00
2023-03-30T02:20:39.468Z,0.00
2023-03-30T02:21:39.457Z,0.00
2023-03-30T02:22:39.457Z,0.00
2023-03-30T02:23:39.464Z,0.00
2023-03-30T02:24:39.427Z,0.00
2023-03-30T02:25:39.408Z,0.00
2023-03-30T02:26:39.402Z,0.00
2023-03-30T02:27:39.420Z,0.00
2023-03-30T02:28:39.395Z,0.00
2023-03-30T02:29:39.371Z,0.00
2023-03-30T02:30:39.366Z,0.00
2023-03-30T02:31:39.373Z,0.00
2023-03-30T02:32:39.378Z,0.00
2023-03-30T02:33:39.320Z,0.00
2023-03-30T02:34:39.316Z,0.00
2023-03-30T02:35:39.328Z,0.00
2023-03-30T02:36:39.291Z,0.00
2023-03-30T02:37:39.285Z,0.00
2023-03-30T02:38:39.268Z,0.00
2023-03-30T02:39:39.260Z,0.00
2023-03-30T02:40:39.243Z,0.00
2023-03-30T02:41:39.229Z,0.00
2023-03-30T02:42:39.231Z,0.00
2023-03-30T02:43:39.235Z,0.00
2023-03-30T02:44:39.200Z,0.00
2023-03-30T02:45:39.248Z,0.00
2023-03-30T02:46:39.177Z,0.00
2023-03-30T02:47:39.200Z,0.00
2023-03-30T02:48:39.161Z,0.00
2023-03-30T02:49:39.151Z,0.00
2023-03-30T02:50:39.134Z,0.00
2023-03-30T02:51:39.121Z,0.00
2023-03-30T02:52:39.109Z,0.00
2023-03-30T02:53:39.095Z,0.00
2023-03-30T02:54:39.086Z,0.00
2023-03-30T02:55:39.077Z,0.00
2023-03-30T02:56:39.063Z,0.00
2023-03-30T02:57:39.051Z,0.00
2023-03-30T02:58:39.041Z,0.00
2023-03-30T02:59:39.066Z,0.00
2023-03-30T03:00:39.026Z,0.00
2023-03-30T03:01:39.022Z,0.00
2023-03-30T03:02:39.057Z,0.00
2023-03-30T03:03:39.165Z,0.00
2023-03-30T03:04:38.972Z,0.00
2023-03-30T03:05:38.961Z,0.00
2023-03-30T03:06:38.965Z,0.00
2023-03-30T03:07:38.941Z,0.00
2023-03-30T03:08:38.929Z,0.00
2023-03-30T03:09:38.916Z,0.00
2023-03-30T03:10:38.916Z,0.00
2023-03-30T03:11:38.901Z,0.00
2023-03-30T03:12:38.885Z,0.00
2023-03-30T03:13:38.878Z,0.00
2023-03-30T03:14:38.865Z,0.00
2023-03-30T03:15:38.878Z,0.00
2023-03-30T03:16:38.856Z,0.00
2023-03-30T03:17:38.847Z,0.00
2023-03-30T03:18:38.817Z,0.00
2023-03-30T03:19:38.807Z,0.00
2023-03-30T03:20:38.805Z,0.00
2023-03-30T03:21:38.782Z,0.00
2023-03-30T03:22:38.773Z,0.00
2023-03-30T03:23:38.760Z,0.00
2023-03-30T03:24:38.756Z,0.00
2023-03-30T03:25:38.741Z,0.00
2023-03-30T03:26:38.726Z,0.00
2023-03-30T03:27:38.715Z,0.00
2023-03-30T03:28:38.712Z,0.00
2023-03-30T03:29:38.696Z,0.00
2023-03-30T03:30:38.709Z,0.00
2023-03-30T03:31:38.734Z,0.00
2023-03-30T03:32:38.698Z,0.00
2023-03-30T03:33:38.647Z,0.00
2023-03-30T03:34:38.636Z,0.00
2023-03-30T03:35:38.662Z,0.00
2023-03-30T03:36:38.617Z,0.00
2023-03-30T03:37:38.605Z,0.00
2023-03-30T03:38:38.596Z,0.00
2023-03-30T03:39:38.581Z,0.00
2023-03-30T03:40:38.570Z,0.00
2023-03-30T03:41:38.560Z,0.00
2023-03-30T03:42:38.548Z,0.00
2023-03-30T03:43:38.539Z,0.00
2023-03-30T03:44:38.528Z,0.00
2023-03-30T03:45:38.514Z,0.00
2023-03-30T03:46:38.510Z,0.00
2023-03-30T03:47:38.531Z,0.00
2023-03-30T03:48:38.480Z,0.00
2023-03-30T03:49:38.465Z,0.00
2023-03-30T03:50:38.455Z,0.00
2023-03-30T03:51:38.448Z,0.00
2023-03-30T03:52:38.430Z,0.00
2023-03-30T03:53:38.426Z,0.00
2023-03-30T03:54:38.412Z,0.00
2023-03-30T03:55:38.405Z,0.00
2023-03-30T03:56:38.399Z,0.00
2023-03-30T03:57:38.379Z,0.00
2023-03-30T03:58:38.363Z,0.00
2023-03-30T03:59:38.362Z,0.00
2023-03-30T04:00:38.370Z,0.00
2023-03-30T04:01:38.364Z,0.00
2023-03-30T04:02:38.370Z,0.00
2023-03-30T04:03:38.336Z,0.00
2023-03-30T04:04:38.321Z,0.00
2023-03-30T04:05:38.288Z,0.00
2023-03-30T04:06:38.278Z,0.00
2023-03-30T04:07:38.271Z,0.00
2023-03-30T04:08:38.259Z,0.00
2023-03-30T04:09:38.242Z,0.00
2023-03-30T04:10:38.235Z,0.00
2023-03-30T04:11:38.222Z,0.00
2023-03-30T04:12:38.206Z,0.00
2023-03-30T04:13:38.200Z,0.00
2023-03-30T04:14:38.196Z,0.00
2023-03-30T04:15:38.186Z,0.00
2023-03-30T04:16:38.215Z,0.00
2023-03-30T04:17:38.179Z,0.00
2023-03-30T04:18:38.138Z,0.00
2023-03-30T04:19:38.159Z,0.00
2023-03-30T04:20:38.118Z,0.00
2023-03-30T04:21:38.110Z,0.00
2023-03-30T04:22:38.097Z,0.00
2023-03-30T04:23:38.086Z,0.00
2023-03-30T04:24:38.072Z,0.00
2023-03-30T04:25:38.063Z,0.00
2023-03-30T04:26:38.055Z,0.00
2023-03-30T04:27:38.044Z,0.00
2023-03-30T04:28:38.028Z,0.00
2023-03-30T04:29:38.016Z,0.00
2023-03-30T04:30:38.008Z,0.00
2023-03-30T04:31:38.026Z,0.00
2023-03-30T04:32:38.020Z,0.00
2023-03-30T04:33:37.995Z,0.00
2023-03-30T04:34:37.961Z,0.00
2023-03-30T04:35:38.008Z,0.00
2023-03-30T04:36:37.939Z,0.00
2023-03-30T04:37:37.934Z,4.00
2023-03-30T04:38:37.918Z,4.00
2023-03-30T04:39:37.907Z,4.00
2023-03-30T04:40:37.894Z,0.00
2023-03-30T04:41:37.883Z,4.00
2023-03-30T04:42:37.887Z,4.00
2023-03-30T04:43:37.863Z,4.00
2023-03-30T04:44:37.863Z,8.00
2023-03-30T04:45:37.854Z,8.00
2023-03-30T04:46:37.830Z,8.00
2023-03-30T04:47:37.865Z,8.00
2023-03-30T04:48:37.810Z,12.00
2023-03-30T04:49:37.800Z,24.00
2023-03-30T04:50:37.786Z,28.00
2023-03-30T04:51:37.793Z,36.00
2023-03-30T04:52:37.758Z,52.00
2023-03-30T04:53:37.758Z,60.00
2023-03-30T04:54:37.734Z,68.00
2023-03-30T04:55:37.736Z,72.00
2023-03-30T04:56:37.717Z,88.00
2023-03-30T04:57:37.711Z,100.00
2023-03-30T04:58:37.702Z,124.00
2023-03-30T04:59:37.706Z,144.00
2023-03-30T05:00:37.668Z,168.00
2023-03-30T05:01:37.700Z,184.00
2023-03-30T05:02:37.797Z,204.00
2023-03-30T05:03:37.773Z,224.00
2023-03-30T05:04:37.626Z,240.00
2023-03-30T05:05:37.617Z,256.00
2023-03-30T05:06:37.599Z,260.00
2023-03-30T05:07:37.622Z,260.00
2023-03-30T05:08:39.323Z,268.00
2023-03-30T05:09:37.577Z,264.00
2023-03-30T05:10:37.566Z,260.00
2023-03-30T05:11:37.547Z,256.00
2023-03-30T05:12:37.541Z,248.00
2023-03-30T05:13:37.524Z,244.00
2023-03-30T05:14:37.519Z,244.00
2023-03-30T05:15:37.515Z,260.00
2023-03-30T05:16:37.521Z,288.00
2023-03-30T05:17:37.496Z,308.00
2023-03-30T05:18:37.465Z,328.00
2023-03-30T05:19:37.456Z,356.00
2023-03-30T05:20:37.449Z,396.00
2023-03-30T05:21:37.435Z,448.00
2023-03-30T05:22:37.418Z,500.00
2023-03-30T05:23:37.439Z,556.00
2023-03-30T05:24:37.435Z,612.00
2023-03-30T05:25:37.386Z,660.00
2023-03-30T05:26:37.403Z,720.00
2023-03-30T05:27:37.395Z,816.00
2023-03-30T05:28:37.351Z,992.00
2023-03-30T05:29:37.351Z,1208.00
2023-03-30T05:30:37.335Z,1300.00
2023-03-30T05:31:37.435Z,1280.00
2023-03-30T05:32:37.325Z,1244.00
2023-03-30T05:33:37.302Z,1228.00
2023-03-30T05:34:37.284Z,1272.00
2023-03-30T05:35:37.336Z,1364.00
2023-03-30T05:36:37.360Z,1496.00
2023-03-30T05:37:37.257Z,1612.00
2023-03-30T05:38:37.236Z,1712.00
2023-03-30T05:39:37.256Z,1828.00
2023-03-30T05:40:37.212Z,1960.00
2023-03-30T05:41:37.220Z,2108.00
2023-03-30T05:42:37.193Z,2188.00
2023-03-30T05:43:37.180Z,2380.00
2023-03-30T05:44:37.168Z,2636.00
2023-03-30T05:45:37.157Z,2904.00
2023-03-30T05:46:37.169Z,3088.00
2023-03-30T05:47:37.170Z,3152.00
2023-03-30T05:48:37.123Z,3104.00
2023-03-30T05:49:37.122Z,2896.00
2023-03-30T05:50:37.110Z,2696.00
2023-03-30T05:51:37.092Z,2604.00
2023-03-30T05:52:37.083Z,2672.00
2023-03-30T05:53:37.068Z,2684.00
2023-03-30T05:54:37.060Z,2544.00
2023-03-30T05:55:37.073Z,2428.00
2023-03-30T05:56:37.040Z,2280.00
2023-03-30T05:57:37.115Z,2108.00
2023-03-30T05:58:37.021Z,1992.00
2023-03-30T05:59:37.016Z,1872.00
2023-03-30T06:00:36.989Z,1736.00
2023-03-30T06:01:36.980Z,1708.00
2023-03-30T06:02:37.041Z,1800.00
2023-03-30T06:03:37.089Z,1948.00
2023-03-30T06:04:37.022Z,1964.00
2023-03-30T06:05:37.013Z,1828.00
2023-03-30T06:06:36.930Z,1716.00
2023-03-30T06:07:36.922Z,1676.00
2023-03-30T06:08:36.907Z,1604.00
2023-03-30T06:09:36.895Z,1552.00
2023-03-30T06:10:36.883Z,1412.00
2023-03-30T06:11:36.899Z,1452.00
2023-03-30T06:12:36.859Z,1708.00
2023-03-30T06:13:36.865Z,2040.00
2023-03-30T06:14:36.845Z,2268.00
2023-03-30T06:15:36.829Z,2488.00
2023-03-30T06:16:36.836Z,2756.00
2023-03-30T06:17:36.966Z,2920.00
2023-03-30T06:18:36.799Z,3020.00
2023-03-30T06:19:36.785Z,3092.00
2023-03-30T06:20:36.772Z,3184.00
2023-03-30T06:21:36.764Z,3428.00
2023-03-30T06:22:36.752Z,3584.00
2023-03-30T06:23:36.742Z,3716.00
2023-03-30T06:24:36.728Z,3856.00
2023-03-30T06:25:36.731Z,3684.00
2023-03-30T06:26:36.708Z,3200.00
2023-03-30T06:27:36.730Z,2688.00
2023-03-30T06:28:36.688Z,2460.00
2023-03-30T06:29:36.678Z,2572.00
2023-03-30T06:30:36.668Z,2952.00
2023-03-30T06:31:36.724Z,3072.00
2023-03-30T06:32:36.669Z,2824.00
2023-03-30T06:33:37.514Z,2640.00
2023-03-30T06:34:36.627Z,3016.00
2023-03-30T06:35:36.634Z,3780.00
2023-03-30T06:36:44.504Z,3656.00
2023-03-30T06:37:37.631Z,3460.00
2023-03-30T06:38:36.574Z,3388.00
2023-03-30T06:39:36.565Z,3560.00
2023-03-30T06:40:36.552Z,3956.00
2023-03-30T06:41:36.545Z,4504.00
2023-03-30T06:42:36.531Z,5152.00
2023-03-30T06:43:36.565Z,5968.00
2023-03-30T06:44:36.505Z,7004.00
2023-03-30T06:45:36.508Z,7920.00
2023-03-30T06:46:36.486Z,8208.00
2023-03-30T06:47:36.493Z,7984.00
2023-03-30T06:48:36.805Z,7396.00
2023-03-30T06:49:36.454Z,7128.00
2023-03-30T06:50:36.441Z,7040.00
2023-03-30T06:51:36.438Z,7360.00
2023-03-30T06:52:36.431Z,7200.00
2023-03-30T06:53:36.405Z,6460.00
2023-03-30T06:54:36.396Z,6120.00
2023-03-30T06:55:36.381Z,7028.00
2023-03-30T06:56:36.371Z,8700.00
2023-03-30T06:57:36.361Z,9616.00
2023-03-30T06:58:36.345Z,9600.00
2023-03-30T06:59:36.365Z,10456.00
2023-03-30T07:00:36.344Z,7092.00
2023-03-30T07:01:36.331Z,5380.00
2023-03-30T07:02:36.343Z,4380.00
2023-03-30T07:03:36.295Z,4124.00
2023-03-30T07:04:36.318Z,3728.00
2023-03-30T07:05:36.281Z,3292.00
2023-03-30T07:06:36.259Z,3704.00
2023-03-30T07:07:36.255Z,4892.00
2023-03-30T07:08:36.244Z,5132.00
2023-03-30T07:09:36.232Z,4024.00
2023-03-30T07:10:36.229Z,3440.00
2023-03-30T07:11:36.209Z,3724.00
2023-03-30T07:12:36.193Z,4656.00
2023-03-30T07:13:36.202Z,6288.00
2023-03-30T07:14:36.180Z,8936.00
2023-03-30T07:15:36.379Z,12016.00
2023-03-30T07:16:36.176Z,12756.00
2023-03-30T07:17:36.176Z,10272.00
2023-03-30T07:18:36.129Z,7596.00
2023-03-30T07:19:36.119Z,6688.00
2023-03-30T07:20:36.105Z,7628.00
2023-03-30T07:21:36.114Z,9732.00
2023-03-30T07:22:36.085Z,11864.00
2023-03-30T07:23:36.080Z,12604.00
2023-03-30T07:24:36.056Z,12796.00
2023-03-30T07:25:36.094Z,11928.00
2023-03-30T07:26:36.043Z,11460.00
2023-03-30T07:27:36.031Z,10360.00
2023-03-30T07:28:36.109Z,9004.00
2023-03-30T07:29:36.009Z,8164.00
2023-03-30T07:30:36.011Z,7532.00
2023-03-30T07:31:36.038Z,6796.00
2023-03-30T07:32:36.049Z,7084.00
2023-03-30T07:33:36.015Z,7632.00
2023-03-30T07:34:35.948Z,7576.00
2023-03-30T07:35:35.953Z,6628.00
2023-03-30T07:36:35.925Z,6124.00
2023-03-30T07:37:35.927Z,6256.00
2023-03-30T07:38:35.900Z,6648.00
2023-03-30T07:39:35.915Z,7800.00
2023-03-30T07:40:35.985Z,10400.00
2023-03-30T07:41:35.875Z,11808.00
2023-03-30T07:42:35.855Z,12896.00
2023-03-30T07:43:35.844Z,14280.00
2023-03-30T07:44:35.831Z,14668.00
2023-03-30T07:45:35.827Z,14304.00
2023-03-30T07:46:35.859Z,14216.00
2023-03-30T07:47:35.870Z,15456.00
2023-03-30T07:48:35.787Z,14968.00
2023-03-30T07:49:35.781Z,36480.00
2023-03-30T07:50:35.766Z,27424.00
2023-03-30T07:51:35.753Z,37056.00
2023-03-30T07:52:35.742Z,34144.00
2023-03-30T07:53:35.731Z,22784.00
2023-03-30T07:54:35.729Z,33024.00
2023-03-30T07:55:35.728Z,23104.00
2023-03-30T07:56:35.704Z,33504.00
2023-03-30T07:57:35.699Z,20544.00
2023-03-30T07:58:35.675Z,27648.00
2023-03-30T07:59:35.678Z,41920.00
2023-03-30T08:00:35.668Z,22688.00
2023-03-30T08:01:35.643Z,31936.00
2023-03-30T08:02:35.738Z,17344.00
2023-03-30T08:03:35.807Z,19072.00
2023-03-30T08:04:35.778Z,23872.00
2023-03-30T08:05:35.601Z,32000.00
2023-03-30T08:06:35.588Z,30560.00
2023-03-30T08:07:35.573Z,19488.00
2023-03-30T08:08:35.596Z,14596.00
2023-03-30T08:09:35.551Z,12008.00
2023-03-30T08:10:35.546Z,11660.00
2023-03-30T08:11:35.537Z,9896.00
2023-03-30T08:12:35.548Z,7996.00
2023-03-30T08:13:35.505Z,5980.00
2023-03-30T08:14:35.507Z,5848.00
2023-03-30T08:15:35.491Z,6620.00
2023-03-30T08:16:35.591Z,6608.00
2023-03-30T08:17:35.516Z,5484.00
2023-03-30T08:18:35.451Z,4960.00
2023-03-30T08:19:35.483Z,5676.00
2023-03-30T08:20:35.428Z,5972.00
2023-03-30T08:21:35.424Z,6280.00
2023-03-30T08:22:35.409Z,7888.00
2023-03-30T08:23:35.401Z,8716.00
2023-03-30T08:24:35.384Z,8440.00
2023-03-30T08:25:35.376Z,8052.00
2023-03-30T08:26:35.362Z,8320.00
2023-03-30T08:27:35.373Z,7996.00
2023-03-30T08:28:35.341Z,9916.00
2023-03-30T08:29:35.326Z,9840.00
2023-03-30T08:30:35.322Z,9044.00
2023-03-30T08:31:35.340Z,8896.00
2023-03-30T08:32:35.354Z,9240.00
2023-03-30T08:33:35.286Z,9428.00
2023-03-30T08:34:36.897Z,8616.00
2023-03-30T08:35:35.302Z,9828.00
2023-03-30T08:36:35.259Z,12444.00
2023-03-30T08:37:35.233Z,12420.00
2023-03-30T08:38:35.234Z,11112.00
2023-03-30T08:39:35.216Z,11548.00
2023-03-30T08:40:35.212Z,13308.00
2023-03-30T08:41:35.212Z,25536.00
2023-03-30T08:42:35.180Z,62464.00
2023-03-30T08:43:35.184Z,42880.00
2023-03-30T08:44:35.191Z,28736.00
2023-03-30T08:45:35.176Z,26784.00
2023-03-30T08:46:35.202Z,24832.00
2023-03-30T08:47:35.209Z,29440.00
2023-03-30T08:48:35.112Z,27360.00
2023-03-30T08:49:35.101Z,54752.00
2023-03-30T08:50:35.093Z,53120.00
2023-03-30T08:51:35.108Z,49024.00
2023-03-30T08:52:35.073Z,44096.00
2023-03-30T08:53:35.105Z,55168.00
2023-03-30T08:54:35.050Z,27680.00
2023-03-30T08:55:35.043Z,52736.00
2023-03-30T08:56:35.031Z,68704.00
2023-03-30T08:57:35.089Z,51360.00
2023-03-30T08:58:35.014Z,57408.00
2023-03-30T08:59:34.990Z,47584.00
2023-03-30T09:00:34.985Z,52288.00
2023-03-30T09:01:35.005Z,53120.00
2023-03-30T09:02:37.544Z,53472.00
2023-03-30T09:03:34.978Z,52448.00
2023-03-30T09:04:34.954Z,52544.00
2023-03-30T09:05:35.038Z,51648.00
2023-03-30T09:06:34.926Z,53440.00
2023-03-30T09:07:34.935Z,54240.00
2023-03-30T09:08:34.893Z,53056.00
2023-03-30T09:09:34.920Z,52192.00
2023-03-30T09:10:34.876Z,54720.00
2023-03-30T09:11:34.873Z,53888.00
2023-03-30T09:12:34.870Z,56960.00
2023-03-30T09:13:34.833Z,55776.00
2023-03-30T09:14:34.830Z,56160.00
2023-03-30T09:15:34.824Z,54912.00
2023-03-30T09:16:34.821Z,20448.00
2023-03-30T09:17:34.839Z,22720.00
2023-03-30T09:18:34.792Z,22720.00
2023-03-30T09:19:34.768Z,24416.00
2023-03-30T09:20:34.779Z,21824.00
2023-03-30T09:21:34.747Z,15816.00
2023-03-30T09:22:34.744Z,11384.00
2023-03-30T09:23:34.753Z,9952.00
2023-03-30T09:24:34.732Z,16576.00
2023-03-30T09:25:34.726Z,53696.00
2023-03-30T09:26:34.726Z,15108.00
2023-03-30T09:27:34.705Z,14348.00
2023-03-30T09:28:34.715Z,16084.00
2023-03-30T09:29:34.693Z,21376.00
2023-03-30T09:30:34.724Z,57440.00
2023-03-30T09:31:34.684Z,60768.00
2023-03-30T09:32:34.656Z,54624.00
2023-03-30T09:33:34.619Z,55392.00
2023-03-30T09:34:34.608Z,18496.00
2023-03-30T09:35:34.739Z,56896.00
2023-03-30T09:36:34.592Z,58528.00
2023-03-30T09:37:34.583Z,22912.00
2023-03-30T09:38:34.563Z,28480.00
2023-03-30T09:39:34.593Z,21920.00
2023-03-30T09:40:34.561Z,22528.00
2023-03-30T09:41:34.534Z,25024.00
2023-03-30T09:42:34.520Z,71616.00
2023-03-30T09:43:34.507Z,38944.00
2023-03-30T09:44:34.501Z,30592.00
2023-03-30T09:45:34.480Z,21088.00
2023-03-30T09:46:34.564Z,15132.00
2023-03-30T09:47:34.477Z,7980.00
2023-03-30T09:48:34.458Z,6008.00
2023-03-30T09:49:34.438Z,7712.00
2023-03-30T09:50:34.430Z,8132.00
2023-03-30T09:51:34.418Z,9572.00
2023-03-30T09:52:34.421Z,15716.00
2023-03-30T09:53:34.405Z,22688.00
2023-03-30T09:54:34.391Z,49120.00
2023-03-30T09:55:34.391Z,42368.00
2023-03-30T09:56:34.363Z,27136.00
2023-03-30T09:57:34.551Z,33088.00
2023-03-30T09:58:34.343Z,26560.00
2023-03-30T09:59:34.326Z,22272.00
2023-03-30T10:00:34.317Z,21984.00
2023-03-30T10:01:34.347Z,18336.00
2023-03-30T10:02:34.391Z,16960.00
2023-03-30T10:03:34.424Z,17024.00
2023-03-30T10:04:34.322Z,18432.00
2023-03-30T10:05:34.273Z,19808.00
2023-03-30T10:06:34.261Z,34336.00
2023-03-30T10:07:34.263Z,27456.00
2023-03-30T10:08:34.231Z,29984.00
2023-03-30T10:09:34.216Z,27680.00
2023-03-30T10:10:34.224Z,22720.00
2023-03-30T10:11:34.230Z,18144.00
2023-03-30T10:12:34.185Z,14740.00
2023-03-30T10:13:34.176Z,12032.00
2023-03-30T10:14:34.166Z,9780.00
2023-03-30T10:15:34.191Z,7968.00
2023-03-30T10:16:34.249Z,6764.00
2023-03-30T10:17:34.180Z,6176.00
2023-03-30T10:18:34.118Z,6068.00
2023-03-30T10:19:36.962Z,6088.00
2023-03-30T10:20:34.095Z,5752.00
2023-03-30T10:21:34.094Z,6176.00
2023-03-30T10:22:34.076Z,6896.00
2023-03-30T10:23:34.062Z,7684.00
2023-03-30T10:24:34.051Z,8412.00
2023-03-30T10:25:34.040Z,9804.00
2023-03-30T10:26:34.029Z,11588.00
2023-03-30T10:27:34.049Z,14172.00
2023-03-30T10:28:34.036Z,17504.00
2023-03-30T10:29:33.993Z,19840.00
2023-03-30T10:30:33.992Z,21152.00
2023-03-30T10:31:34.028Z,23904.00
2023-03-30T10:32:33.988Z,40064.00
2023-03-30T10:33:33.952Z,31520.00
2023-03-30T10:34:33.945Z,32576.00
2023-03-30T10:35:33.960Z,30144.00
2023-03-30T10:36:33.917Z,46944.00
2023-03-30T10:37:33.931Z,32352.00
2023-03-30T10:38:33.900Z,29216.00
2023-03-30T10:39:33.884Z,28320.00
2023-03-30T10:40:33.873Z,30656.00
2023-03-30T10:41:33.860Z,31072.00
2023-03-30T10:42:33.859Z,30016.00
2023-03-30T10:43:33.931Z,34272.00
2023-03-30T10:44:33.829Z,38944.00
2023-03-30T10:45:33.828Z,31616.00
2023-03-30T10:46:33.852Z,24160.00
2023-03-30T10:47:33.841Z,17248.00
2023-03-30T10:48:33.789Z,17216.00
2023-03-30T10:49:33.773Z,15096.00
2023-03-30T10:50:33.763Z,11344.00
2023-03-30T10:51:33.754Z,12136.00
2023-03-30T10:52:33.739Z,19904.00
2023-03-30T10:53:33.728Z,22624.00
2023-03-30T10:54:33.719Z,21152.00
2023-03-30T10:55:33.701Z,23872.00
2023-03-30T10:56:33.701Z,24224.00
2023-03-30T10:57:33.709Z,25344.00
2023-03-30T10:58:33.671Z,49728.00
2023-03-30T10:59:33.700Z,34912.00
2023-03-30T11:00:33.650Z,38272.00
2023-03-30T11:01:33.724Z,37248.00
2023-03-30T11:02:33.778Z,35008.00
2023-03-30T11:03:33.657Z,40768.00
2023-03-30T11:04:33.729Z,35776.00
2023-03-30T11:05:33.597Z,43264.00
2023-03-30T11:06:33.584Z,19968.00
2023-03-30T11:07:33.578Z,22272.00
2023-03-30T11:08:33.559Z,26080.00
2023-03-30T11:09:33.558Z,23296.00
2023-03-30T11:10:33.543Z,20832.00
2023-03-30T11:11:33.527Z,26016.00
2023-03-30T11:12:33.519Z,25568.00
2023-03-30T11:13:33.507Z,35296.00
2023-03-30T11:14:33.494Z,32800.00
2023-03-30T11:15:33.507Z,33088.00
2023-03-30T11:16:33.567Z,28480.00
2023-03-30T11:17:33.520Z,40480.00
2023-03-30T11:18:33.455Z,52640.00
2023-03-30T11:19:33.434Z,21216.00
2023-03-30T11:20:33.425Z,17760.00
2023-03-30T11:21:33.417Z,21856.00
2023-03-30T11:22:33.701Z,25408.00
2023-03-30T11:23:33.395Z,59232.00
2023-03-30T11:24:33.383Z,19392.00
2023-03-30T11:25:33.375Z,16560.00
2023-03-30T11:26:33.363Z,18848.00
2023-03-30T11:27:33.352Z,16804.00
2023-03-30T11:28:33.336Z,13952.00
2023-03-30T11:29:33.328Z,17440.00
2023-03-30T11:30:33.317Z,19232.00
2023-03-30T11:31:33.365Z,16004.00
2023-03-30T11:32:33.316Z,14016.00
2023-03-30T11:33:33.280Z,10056.00
2023-03-30T11:34:33.267Z,6952.00
2023-03-30T11:35:33.317Z,7740.00
2023-03-30T11:36:33.254Z,9016.00
2023-03-30T11:37:33.238Z,9404.00
2023-03-30T11:38:33.227Z,9416.00
2023-03-30T11:39:33.317Z,9744.00
2023-03-30T11:40:33.200Z,11760.00
2023-03-30T11:41:33.189Z,14800.00
2023-03-30T11:42:33.190Z,18464.00
2023-03-30T11:43:33.165Z,21536.00
2023-03-30T11:44:33.174Z,25984.00
2023-03-30T11:45:33.145Z,27232.00
2023-03-30T11:46:33.189Z,29696.00
2023-03-30T11:47:33.215Z,35904.00
2023-03-30T11:48:33.136Z,35168.00
2023-03-30T11:49:33.102Z,32608.00
2023-03-30T11:50:33.098Z,33888.00
2023-03-30T11:51:33.082Z,35584.00
2023-03-30T11:52:33.074Z,35744.00
2023-03-30T11:53:33.056Z,33280.00
2023-03-30T11:54:33.047Z,32928.00
2023-03-30T11:55:33.037Z,33312.00
2023-03-30T11:56:33.029Z,29344.00
2023-03-30T11:57:33.014Z,28128.00
2023-03-30T11:58:33.006Z,24608.00
2023-03-30T11:59:32.989Z,19872.00
2023-03-30T12:00:32.984Z,20864.00
2023-03-30T12:01:32.972Z,23552.00
2023-03-30T12:02:33.049Z,28000.00
2023-03-30T12:03:33.055Z,32768.00
2023-03-30T12:04:32.965Z,35904.00
2023-03-30T12:05:32.925Z,32832.00
2023-03-30T12:06:32.920Z,29088.00
2023-03-30T12:07:32.905Z,22816.00
2023-03-30T12:08:32.899Z,18368.00
2023-03-30T12:09:32.885Z,15800.00
2023-03-30T12:10:32.872Z,16128.00
2023-03-30T12:11:32.868Z,23648.00
2023-03-30T12:12:32.892Z,25856.00
2023-03-30T12:13:41.311Z,28672.00
2023-03-30T12:14:32.843Z,34304.00
2023-03-30T12:15:32.813Z,38976.00
2023-03-30T12:16:32.867Z,39072.00
2023-03-30T12:17:32.800Z,34496.00
2023-03-30T12:18:32.783Z,28768.00
2023-03-30T12:19:37.474Z,30112.00
2023-03-30T12:20:33.790Z,36960.00
2023-03-30T12:21:32.757Z,40352.00
2023-03-30T12:22:32.740Z,42912.00
2023-03-30T12:23:32.731Z,31040.00
2023-03-30T12:24:32.731Z,29536.00
2023-03-30T12:25:32.704Z,30912.00